Munich International Airport EDDM

Flugplatz Daten

Name: Munich International Airport

Ident: EDDM

Lat: 48,35380173

Long: 11,78610039

Platzhöhe: 1487 ft

IataCode: MUC

City: Munich

Homepage: http://www.munich-airport.de/en/consumer/index.jsp

Metar

2021/10/16 18:20
EDDM 161820Z VRB01KT CAVOK 05/05 Q1020 NOSIG

Taf

2021/10/16 18:27
TAF EDDM 161700Z 1618/1724 VRB02KT 9999 FEW030
BECMG 1621/1623 2000 BCFG
BECMG 1623/1702 0500 FG PROB40
TEMPO 1700/1707 0300 FG VV001
BECMG 1706/1709 2500 BR BKN003
BECMG 1709/1712 9999 FEW010

Webcams

Munich Wiesen Olympiapark
Gewünschte Webcam nicht vorhanden? Dann fügen Sie eine hinzu. Sie wird dann so schnell wie möglich freigeschaltet
Url: Title: